createdAt,value
2023-01-17T00:00:37.238Z,5.57
2023-01-17T00:03:04.919Z,5.38
2023-01-17T00:05:51.174Z,5.45
2023-01-17T00:08:37.437Z,5.57
2023-01-17T00:12:18.912Z,5.46
2023-01-17T00:16:00.045Z,5.72
2023-01-17T00:19:03.409Z,5.53
2023-01-17T00:21:49.190Z,5.59
2023-01-17T00:24:34.985Z,5.63
2023-01-17T00:27:14.707Z,5.53
2023-01-17T00:29:42.215Z,5.67
2023-01-17T00:32:09.655Z,5.66
2023-01-17T00:34:37.128Z,5.69
2023-01-17T00:37:04.680Z,5.41
2023-01-17T00:39:32.153Z,5.63
2023-01-17T00:41:59.649Z,5.64
2023-01-17T00:44:45.568Z,5.69
2023-01-17T00:47:31.450Z,5.68
2023-01-17T00:50:17.297Z,5.57
2023-01-17T00:53:03.790Z,5.52
2023-01-17T00:55:51.932Z,5.55
2023-01-17T00:58:37.627Z,5.59
2023-01-17T01:01:26.687Z,5.49
2023-01-17T01:04:12.984Z,5.46
2023-01-17T01:07:00.365Z,5.51
2023-01-17T01:09:46.150Z,5.45
2023-01-17T01:12:32.466Z,5.40
2023-01-17T01:15:18.366Z,5.44
2023-01-17T01:18:04.188Z,5.52
2023-01-17T01:20:50.939Z,5.35
2023-01-17T01:23:37.303Z,5.08
2023-01-17T01:26:23.788Z,5.22
2023-01-17T01:29:10.165Z,5.28
2023-01-17T01:31:56.494Z,5.31
2023-01-17T01:34:24.145Z,5.24
2023-01-17T01:36:51.784Z,5.41
2023-01-17T01:39:19.525Z,5.36
2023-01-17T01:41:47.147Z,5.38
2023-01-17T01:44:40.991Z,5.39
2023-01-17T01:47:12.290Z,5.34
2023-01-17T01:49:40.263Z,5.36
2023-01-17T01:52:09.814Z,5.38
2023-01-17T01:54:44.875Z,5.22
2023-01-17T01:57:17.237Z,5.31
2023-01-17T01:59:52.338Z,5.13
2023-01-17T02:02:19.983Z,5.09
2023-01-17T02:04:48.726Z,5.13
2023-01-17T02:07:25.639Z,5.23
2023-01-17T02:09:54.595Z,5.09
2023-01-17T02:12:22.360Z,5.30
2023-01-17T02:14:49.900Z,5.31
2023-01-17T02:17:38.983Z,5.40
2023-01-17T02:20:43.283Z,5.24
2023-01-17T02:23:36.135Z,5.36
2023-01-17T02:26:25.283Z,5.28
2023-01-17T02:29:05.874Z,5.20
2023-01-17T02:31:43.757Z,5.35
2023-01-17T02:34:40.126Z,5.49
2023-01-17T02:37:11.058Z,5.46
2023-01-17T02:39:53.300Z,5.50
2023-01-17T02:42:26.702Z,5.52
2023-01-17T02:44:54.255Z,5.64
2023-01-17T02:47:28.347Z,5.59
2023-01-17T02:50:02.205Z,5.51
2023-01-17T02:52:59.131Z,5.32
2023-01-17T02:55:32.476Z,5.49
2023-01-17T02:58:13.376Z,5.41
2023-01-17T03:00:56.581Z,5.47
2023-01-17T03:03:35.602Z,5.48
2023-01-17T03:06:12.701Z,5.55
2023-01-17T03:08:43.064Z,5.52
2023-01-17T03:11:12.777Z,5.47
2023-01-17T03:13:41.383Z,5.48
2023-01-17T03:16:15.093Z,5.16
2023-01-17T03:18:42.872Z,5.32
2023-01-17T03:21:10.605Z,5.12
2023-01-17T03:23:38.241Z,4.93
2023-01-17T03:26:06.079Z,4.76
2023-01-17T03:28:34.691Z,4.56
2023-01-17T03:31:02.334Z,4.31
2023-01-17T03:33:29.939Z,4.54
2023-01-17T03:35:58.326Z,4.51
2023-01-17T03:38:27.068Z,4.51
2023-01-17T03:40:55.049Z,4.29
2023-01-17T03:43:23.813Z,4.33
2023-01-17T03:45:54.576Z,4.21
2023-01-17T03:48:23.266Z,4.14
2023-01-17T03:50:53.626Z,4.15
2023-01-17T03:53:21.537Z,4.20
2023-01-17T03:55:49.115Z,4.32
2023-01-17T03:58:16.851Z,4.30
2023-01-17T04:00:44.473Z,4.42
2023-01-17T04:03:12.088Z,4.53
2023-01-17T04:05:58.005Z,4.62
2023-01-17T04:08:25.468Z,4.51
2023-01-17T04:10:52.978Z,4.69
2023-01-17T04:13:20.520Z,4.64
2023-01-17T04:15:51.207Z,4.76
2023-01-17T04:18:20.337Z,4.87
2023-01-17T04:20:47.831Z,4.90
2023-01-17T04:23:16.776Z,4.97
2023-01-17T04:25:44.649Z,4.97
2023-01-17T04:28:12.895Z,4.68
2023-01-17T04:30:40.627Z,4.56
2023-01-17T04:33:08.462Z,4.71
2023-01-17T04:35:36.448Z,4.95
2023-01-17T04:38:04.089Z,4.96
2023-01-17T04:40:31.833Z,4.77
2023-01-17T04:42:59.684Z,5.09
2023-01-17T04:45:27.376Z,4.98
2023-01-17T04:47:54.901Z,5.09
2023-01-17T04:50:22.510Z,5.10
2023-01-17T04:52:50.104Z,4.98
2023-01-17T04:55:17.643Z,5.27
2023-01-17T04:57:45.291Z,5.23
2023-01-17T05:00:13.494Z,5.05
2023-01-17T05:02:41.155Z,4.96
2023-01-17T05:05:09.298Z,4.76
2023-01-17T05:07:36.867Z,4.91
2023-01-17T05:10:06.414Z,4.36
2023-01-17T05:12:34.132Z,4.52
2023-01-17T05:15:02.800Z,4.38
2023-01-17T05:17:30.975Z,4.45
2023-01-17T05:19:58.563Z,4.71
2023-01-17T05:22:27.168Z,4.74
2023-01-17T05:24:54.731Z,4.84
2023-01-17T05:27:22.322Z,4.42
2023-01-17T05:29:49.872Z,4.28
2023-01-17T05:32:17.595Z,4.35
2023-01-17T05:34:45.114Z,4.48
2023-01-17T05:37:12.777Z,4.33
2023-01-17T05:39:40.353Z,4.33
2023-01-17T05:42:07.973Z,4.27
2023-01-17T05:44:35.477Z,4.18
2023-01-17T05:47:03.203Z,4.40
2023-01-17T05:49:30.797Z,4.50
2023-01-17T05:51:58.440Z,4.55
2023-01-17T05:54:26.052Z,4.58
2023-01-17T05:56:53.660Z,4.42
2023-01-17T05:59:32.360Z,4.45
2023-01-17T06:02:03.855Z,4.36
2023-01-17T06:05:11.028Z,4.39
2023-01-17T06:26:48.540Z,4.23
2023-01-17T06:29:31.028Z,4.20
2023-01-17T06:32:32.522Z,4.31
2023-01-17T06:35:00.398Z,4.27
2023-01-17T06:37:30.866Z,4.10
2023-01-17T06:39:58.694Z,4.12
2023-01-17T06:42:26.302Z,4.16
2023-01-17T06:44:53.995Z,4.05
2023-01-17T06:47:21.632Z,4.10
2023-01-17T06:49:49.488Z,4.08
2023-01-17T06:52:17.393Z,3.79
2023-01-17T06:54:45.052Z,3.77
2023-01-17T06:57:17.101Z,3.81
2023-01-17T06:59:44.754Z,3.74
2023-01-17T07:02:12.465Z,3.72
2023-01-17T07:04:40.256Z,3.89
2023-01-17T07:07:07.983Z,3.88
2023-01-17T07:09:45.266Z,3.65
2023-01-17T07:12:13.272Z,3.56
2023-01-17T07:14:41.001Z,3.68
2023-01-17T07:17:08.799Z,3.83
2023-01-17T07:19:39.164Z,3.80
2023-01-17T07:22:06.963Z,3.70
2023-01-17T07:24:36.628Z,3.67
2023-01-17T07:27:04.607Z,3.66
2023-01-17T07:30:00.852Z,3.70
2023-01-17T07:32:39.991Z,3.66
2023-01-17T07:35:11.590Z,3.59
2023-01-17T07:37:43.500Z,3.68
2023-01-17T07:40:34.913Z,3.80
2023-01-17T07:43:31.584Z,3.97
2023-01-17T07:46:09.229Z,3.94
2023-01-17T07:48:38.142Z,4.09
2023-01-17T07:51:14.744Z,4.21
2023-01-17T07:53:51.215Z,4.19
2023-01-17T07:56:21.473Z,4.18
2023-01-17T07:58:51.678Z,4.16
2023-01-17T08:01:26.963Z,4.28
2023-01-17T08:04:00.799Z,4.40
2023-01-17T08:06:34.482Z,4.31
2023-01-17T08:09:04.939Z,4.34
2023-01-17T08:11:36.736Z,4.47
2023-01-17T08:14:11.703Z,4.44
2023-01-17T08:16:42.793Z,4.48
2023-01-17T08:19:13.551Z,4.60
2023-01-17T08:21:47.900Z,4.74
2023-01-17T08:24:20.780Z,4.65
2023-01-17T08:26:51.320Z,4.76
2023-01-17T08:29:22.655Z,4.84
2023-01-17T08:32:00.984Z,4.83
2023-01-17T08:34:38.165Z,4.62
2023-01-17T08:41:02.910Z,4.37
2023-01-17T08:47:51.660Z,4.30
2023-01-17T08:59:17.090Z,4.65
2023-01-17T09:06:39.271Z,4.96
2023-01-17T09:09:49.403Z,4.98
2023-01-17T09:13:47.734Z,5.03
2023-01-17T09:17:14.494Z,4.88
2023-01-17T09:21:41.819Z,4.91
2023-01-17T09:29:47.753Z,4.76
2023-01-17T09:32:17.289Z,4.87
2023-01-17T09:34:44.729Z,4.98
2023-01-17T09:37:12.340Z,4.92
2023-01-17T09:39:39.759Z,4.98
2023-01-17T09:42:32.820Z,4.95
2023-01-17T09:45:00.483Z,5.00
2023-01-17T09:47:43.184Z,5.03
2023-01-17T09:50:40.788Z,5.03
2023-01-17T09:53:20.828Z,5.07
2023-01-17T09:55:58.941Z,5.03
2023-01-17T09:58:40.731Z,5.22
2023-01-17T10:01:46.593Z,5.13
2023-01-17T10:04:38.353Z,5.15
2023-01-17T10:07:28.938Z,5.16
2023-01-17T10:10:16.567Z,5.11
2023-01-17T10:12:57.690Z,5.16
2023-01-17T10:15:25.066Z,5.42
2023-01-17T10:18:28.860Z,5.29
2023-01-17T10:21:11.191Z,5.27
2023-01-17T10:23:44.428Z,5.28
2023-01-17T10:26:18.676Z,5.24
2023-01-17T10:28:51.116Z,5.23
2023-01-17T10:31:26.242Z,5.30
2023-01-17T10:34:03.667Z,5.50
2023-01-17T10:36:38.723Z,5.16
2023-01-17T10:39:26.653Z,5.03
2023-01-17T10:41:58.552Z,5.24
2023-01-17T10:44:33.153Z,5.25
2023-01-17T10:47:20.027Z,5.17
2023-01-17T10:49:55.423Z,5.15
2023-01-17T10:52:56.652Z,5.13
2023-01-17T10:55:43.320Z,5.14
2023-01-17T10:58:12.795Z,5.20
2023-01-17T11:01:02.395Z,5.23
2023-01-17T11:03:31.241Z,5.11
2023-01-17T11:06:20.105Z,5.00
2023-01-17T11:08:53.227Z,5.10
2023-01-17T11:11:23.972Z,5.02
2023-01-17T11:13:56.238Z,4.97
2023-01-17T11:16:27.551Z,4.93
2023-01-17T11:19:27.931Z,4.98
2023-01-17T11:22:01.696Z,5.03
2023-01-17T11:24:36.745Z,4.90
2023-01-17T11:27:06.183Z,4.97
2023-01-17T11:29:39.137Z,5.07
2023-01-17T11:32:21.645Z,4.96
2023-01-17T11:35:10.352Z,5.06
2023-01-17T11:37:37.840Z,5.09
2023-01-17T11:40:48.625Z,4.90
2023-01-17T11:43:26.917Z,4.67
2023-01-17T11:46:20.653Z,4.78
2023-01-17T11:48:56.159Z,4.82
2023-01-17T11:51:43.328Z,4.64
2023-01-17T11:54:39.181Z,4.82
2023-01-17T11:57:17.333Z,4.90
2023-01-17T11:59:45.943Z,4.80
2023-01-17T12:02:41.078Z,5.01
2023-01-17T12:05:37.723Z,5.26
2023-01-17T12:08:30.593Z,5.25
2023-01-17T12:11:26.832Z,5.02
2023-01-17T12:14:12.199Z,5.34
2023-01-17T12:17:11.608Z,5.58
2023-01-17T12:20:04.939Z,5.58
2023-01-17T12:23:14.465Z,5.47
2023-01-17T12:26:19.704Z,5.54
2023-01-17T12:29:00.977Z,5.63
2023-01-17T12:31:35.225Z,5.86
2023-01-17T12:34:26.258Z,5.83
2023-01-17T12:37:06.994Z,5.93
2023-01-17T12:39:42.719Z,6.00
2023-01-17T12:42:14.582Z,6.29
2023-01-17T12:44:55.839Z,6.41
2023-01-17T12:47:23.582Z,6.45
2023-01-17T12:50:00.924Z,6.27
2023-01-17T12:52:38.678Z,6.42
2023-01-17T12:55:15.008Z,6.67
2023-01-17T12:57:47.822Z,6.71
2023-01-17T13:00:23.139Z,6.65
2023-01-17T13:03:18.911Z,6.68
2023-01-17T13:05:47.139Z,6.93
2023-01-17T13:08:47.058Z,6.93
2023-01-17T13:11:27.821Z,6.89
2023-01-17T13:13:58.014Z,7.19
2023-01-17T13:16:42.149Z,6.94
2023-01-17T13:19:24.541Z,6.87
2023-01-17T13:21:52.716Z,6.92
2023-01-17T13:24:34.445Z,6.85
2023-01-17T13:27:32.288Z,6.80
2023-01-17T13:30:22.161Z,6.89
2023-01-17T13:33:20.541Z,6.44
2023-01-17T13:36:10.632Z,6.60
2023-01-17T13:38:59.432Z,6.88
2023-01-17T13:41:54.051Z,6.85
2023-01-17T13:44:27.533Z,6.60
2023-01-17T13:47:08.137Z,6.84
2023-01-17T13:49:49.400Z,6.42
2023-01-17T13:52:19.680Z,6.61
2023-01-17T13:54:50.263Z,6.56
2023-01-17T13:57:29.343Z,6.42
2023-01-17T13:59:59.121Z,6.35
2023-01-17T14:02:32.465Z,6.26
2023-01-17T14:05:12.464Z,6.17
2023-01-17T14:07:43.813Z,6.08
2023-01-17T14:10:39.520Z,6.45
2023-01-17T14:13:35.256Z,6.22
2023-01-17T14:16:29.195Z,6.47
2023-01-17T14:19:04.493Z,6.58
2023-01-17T14:21:32.662Z,6.56
2023-01-17T14:24:18.666Z,6.79
2023-01-17T14:26:57.139Z,6.67
2023-01-17T14:29:43.009Z,6.91
2023-01-17T14:32:19.444Z,6.77
2023-01-17T14:35:06.091Z,6.58
2023-01-17T14:37:56.081Z,6.55
2023-01-17T14:40:30.662Z,6.73
2023-01-17T14:42:58.221Z,6.83
2023-01-17T14:45:31.869Z,6.45
2023-01-17T14:48:03.229Z,6.25
2023-01-17T14:50:52.383Z,6.31
2023-01-17T14:53:39.551Z,6.13
2023-01-17T14:56:15.427Z,6.24
2023-01-17T14:58:43.088Z,6.15
2023-01-17T15:01:17.759Z,6.38
2023-01-17T15:03:49.722Z,6.51
2023-01-17T15:06:20.822Z,6.43
2023-01-17T15:08:50.357Z,6.77
2023-01-17T15:11:33.035Z,6.44
2023-01-17T15:14:05.955Z,6.38
2023-01-17T15:16:37.406Z,6.59
2023-01-17T16:40:16.430Z,5.81
2023-01-17T16:46:55.756Z,5.73
2023-01-17T16:49:50.491Z,5.65
2023-01-17T16:53:54.603Z,5.71
2023-01-17T16:57:23.256Z,5.82
2023-01-17T17:00:32.287Z,5.75
2023-01-17T17:14:16.249Z,5.34
2023-01-17T17:16:53.607Z,5.45
2023-01-17T17:19:21.548Z,5.36
2023-01-17T17:22:48.130Z,5.43
2023-01-17T17:51:10.407Z,5.56
2023-01-17T18:12:08.705Z,5.71
2023-01-17T18:14:59.900Z,5.65
2023-01-17T18:17:44.001Z,5.54
2023-01-17T18:20:25.023Z,5.58
2023-01-17T18:22:53.707Z,5.49
2023-01-17T18:25:23.740Z,5.37
2023-01-17T18:28:11.749Z,5.42
2023-01-17T18:30:39.538Z,5.37
2023-01-17T18:34:22.693Z,5.42
2023-01-17T18:36:51.275Z,5.41
2023-01-17T18:39:29.364Z,5.31
2023-01-17T18:46:26.073Z,5.17
2023-01-17T18:49:33.272Z,5.16
2023-01-17T18:52:01.606Z,5.19
2023-01-17T18:54:35.963Z,5.12
2023-01-17T18:57:09.094Z,5.06
2023-01-17T18:59:36.659Z,5.02
2023-01-17T19:03:21.190Z,5.06
2023-01-17T19:06:55.940Z,5.02
2023-01-17T20:39:04.305Z,4.87
2023-01-17T22:14:10.159Z,4.07
2023-01-17T23:13:56.075Z,4.64
2023-01-17T23:16:42.625Z,4.49
2023-01-17T23:19:31.507Z,4.24
2023-01-17T23:22:58.825Z,4.50
2023-01-17T23:29:27.070Z,4.77
2023-01-17T23:31:54.713Z,4.73
2023-01-17T23:34:50.125Z,4.77
2023-01-17T23:38:09.322Z,4.74
2023-01-17T23:49:35.736Z,4.18
2023-01-17T23:52:08.482Z,4.20
2023-01-17T23:54:36.100Z,4.24
2023-01-17T23:57:10.256Z,4.24
2023-01-17T23:59:50.647Z,4.35
